Charlton Depot, MA

9:44 AM EST on January 29, 2015 (GMT -0500)
KMASPENC6 | Change Station
CLOSE
Current Station
Personal Weather Station
Location: Spencer, MA
Elevation: 995 ft
Nearby Weather Stations

Elev 995 ft 42.23 °N, 71.98 °W | Updated 2 seconds ago

Partly Cloudy
Partly Cloudy
28.5 °F
Feels Like 28 °F
N
0.0
Wind Variable Wind from West
Gusts 0.0 mph

Today
High -- | Low -- °F
--% Chance of Precip.
Yesterday
High -- | Low -- °F
Precip. -- in
7:04 AM 4:58 PM
Waxing Gibbous, 74% visible
Pressure 30.30 in
Visibility 10.0 miles
Clouds Clear
Windchill 28 °F
Dew Point -9 °F
Humidity 19%
Rainfall 0.00 in
Snow Depth Not available.
UV 1 out of 12
Pollen .10 out of 12
Air Quality Not available.
Flu Activity Not available.
METAR KORH 291354Z 00000KT 10SM CLR M04/M22 A3025 RMK AO2 SLP261 T10391217

More Conditions Fewer Conditions

Pressure 30.30 in
Visibility 10.0 miles
Clouds Clear
Windchill 28 °F
Dew Point -9 °F
Humidity 19%
Rainfall 0.00 in
Snow Depth Not available.
UV 1 out of 12
Pollen .10 out of 12
Air Quality Not available.
Flu Activity Not available.
METAR KORH 291354Z 00000KT 10SM CLR M04/M22 A3025 RMK AO2 SLP261 T10391217

More Conditions Fewer Conditions

10-Day Weather Forecast

Almanac

Astronomy

Jan. 29, 2015 Rise Set
Actual Time
Civil Twilight
Nautical Twilight
Astronomical Twilight
Moon
Length of Visible Light
Length of Day
Tomorrow will be .
, % of the Moon is Illuminated

Today's Extremes

State Highs State Lows

Community

WunderPhotos

Upload Photos

1,791,443 photos uploaded!

WunderBlogs® & News

Nearby

Air Quality

  Air Quality AQ Index Pollutant
Not available.

Snow Depth

Station Depth Elevation

Earthquake Activity

City Distance Mag. Time & Date
Minimum magnitude displayed is 2.5.

Coastal Water Temperatures

Place Temperature

Nearby Weather Stations